sensor_id;sensor_type;location;lat;lon;timestamp;P1;durP1;ratioP1;P2;durP2;ratioP2
30862;SDS011;17573;55.922;37.540;2022-09-09T00:00:22;5.20;;;4.70;;
30862;SDS011;17573;55.922;37.540;2022-09-09T00:02:58;4.85;;;4.25;;
30862;SDS011;17573;55.922;37.540;2022-09-09T00:05:59;5.25;;;4.72;;
30862;SDS011;17573;55.922;37.540;2022-09-09T00:09:04;7.20;;;5.07;;
30862;SDS011;17573;55.922;37.540;2022-09-09T00:17:58;6.07;;;4.38;;
30862;SDS011;17573;55.922;37.540;2022-09-09T00:23:49;10.05;;;5.22;;
30862;SDS011;17573;55.922;37.540;2022-09-09T00:32:16;4.93;;;4.43;;
30862;SDS011;17573;55.922;37.540;2022-09-09T00:35:14;9.98;;;4.22;;
30862;SDS011;17573;55.922;37.540;2022-09-09T00:37:56;5.53;;;5.03;;
30862;SDS011;17573;55.922;37.540;2022-09-09T00:40:55;6.50;;;5.22;;
30862;SDS011;17573;55.922;37.540;2022-09-09T00:43:36;7.25;;;4.00;;
30862;SDS011;17573;55.922;37.540;2022-09-09T00:52:46;6.70;;;5.30;;
30862;SDS011;17573;55.922;37.540;2022-09-09T00:55:34;6.50;;;4.78;;
30862;SDS011;17573;55.922;37.540;2022-09-09T00:58:34;8.80;;;5.03;;
30862;SDS011;17573;55.922;37.540;2022-09-09T01:01:09;11.15;;;5.00;;
30862;SDS011;17573;55.922;37.540;2022-09-09T01:04:04;5.57;;;4.85;;
30862;SDS011;17573;55.922;37.540;2022-09-09T01:06:41;7.93;;;4.40;;
30862;SDS011;17573;55.922;37.540;2022-09-09T01:09:46;6.35;;;4.85;;
30862;SDS011;17573;55.922;37.540;2022-09-09T01:12:43;7.38;;;4.53;;
30862;SDS011;17573;55.922;37.540;2022-09-09T01:15:37;5.60;;;4.85;;
30862;SDS011;17573;55.922;37.540;2022-09-09T01:18:12;6.68;;;4.68;;
30862;SDS011;17573;55.922;37.540;2022-09-09T01:21:19;9.38;;;4.70;;
30862;SDS011;17573;55.922;37.540;2022-09-09T01:27:36;7.72;;;4.82;;
30862;SDS011;17573;55.922;37.540;2022-09-09T01:30:10;13.60;;;4.85;;
30862;SDS011;17573;55.922;37.540;2022-09-09T01:33:04;4.18;;;3.58;;
30862;SDS011;17573;55.922;37.540;2022-09-09T01:35:48;5.10;;;3.88;;
30862;SDS011;17573;55.922;37.540;2022-09-09T01:39:02;6.45;;;5.28;;
30862;SDS011;17573;55.922;37.540;2022-09-09T01:41:35;5.15;;;4.43;;
30862;SDS011;17573;55.922;37.540;2022-09-09T01:44:31;6.03;;;4.65;;
30862;SDS011;17573;55.922;37.540;2022-09-09T01:47:03;10.63;;;4.18;;
30862;SDS011;17573;55.922;37.540;2022-09-09T01:50:17;5.05;;;4.55;;
30862;SDS011;17573;55.922;37.540;2022-09-09T01:52:50;4.32;;;3.92;;
30862;SDS011;17573;55.922;37.540;2022-09-09T01:55:49;5.00;;;3.83;;
30862;SDS011;17573;55.922;37.540;2022-09-09T02:14:12;5.30;;;4.30;;
30862;SDS011;17573;55.922;37.540;2022-09-09T02:16:49;4.50;;;4.10;;
30862;SDS011;17573;55.922;37.540;2022-09-09T02:20:06;6.35;;;4.65;;
30862;SDS011;17573;55.922;37.540;2022-09-09T02:22:53;9.02;;;4.47;;
30862;SDS011;17573;55.922;37.540;2022-09-09T02:25:46;5.00;;;4.38;;
30862;SDS011;17573;55.922;37.540;2022-09-09T02:28:22;6.07;;;4.03;;
30862;SDS011;17573;55.922;37.540;2022-09-09T02:31:18;4.38;;;4.00;;
30862;SDS011;17573;55.922;37.540;2022-09-09T02:33:59;8.25;;;3.85;;
30862;SDS011;17573;55.922;37.540;2022-09-09T02:36:56;4.15;;;3.78;;
30862;SDS011;17573;55.922;37.540;2022-09-09T02:39:29;6.72;;;4.53;;
30862;SDS011;17573;55.922;37.540;2022-09-09T02:42:25;4.55;;;4.15;;
30862;SDS011;17573;55.922;37.540;2022-09-09T02:44:59;9.32;;;3.60;;
30862;SDS011;17573;55.922;37.540;2022-09-09T02:50:43;6.65;;;3.70;;
30862;SDS011;17573;55.922;37.540;2022-09-09T02:54:04;4.57;;;4.13;;
30862;SDS011;17573;55.922;37.540;2022-09-09T02:56:49;29.30;;;5.45;;
30862;SDS011;17573;55.922;37.540;2022-09-09T02:59:50;10.18;;;4.13;;
30862;SDS011;17573;55.922;37.540;2022-09-09T03:02:23;5.40;;;3.95;;
30862;SDS011;17573;55.922;37.540;2022-09-09T03:05:18;7.45;;;3.55;;
30862;SDS011;17573;55.922;37.540;2022-09-09T03:07:50;5.38;;;4.43;;
30862;SDS011;17573;55.922;37.540;2022-09-09T03:10:43;5.57;;;3.92;;
30862;SDS011;17573;55.922;37.540;2022-09-09T03:13:15;6.93;;;4.65;;
30862;SDS011;17573;55.922;37.540;2022-09-09T03:16:08;3.58;;;3.28;;
30862;SDS011;17573;55.922;37.540;2022-09-09T03:18:44;5.25;;;3.97;;
30862;SDS011;17573;55.922;37.540;2022-09-09T03:21:37;5.18;;;4.10;;
30862;SDS011;17573;55.922;37.540;2022-09-09T03:24:09;7.68;;;3.90;;
30862;SDS011;17573;55.922;37.540;2022-09-09T03:27:03;5.75;;;3.55;;
30862;SDS011;17573;55.922;37.540;2022-09-09T03:29:37;6.00;;;3.95;;
30862;SDS011;17573;55.922;37.540;2022-09-09T03:32:33;5.38;;;3.58;;
30862;SDS011;17573;55.922;37.540;2022-09-09T03:35:06;6.70;;;3.90;;
30862;SDS011;17573;55.922;37.540;2022-09-09T03:38:00;3.97;;;3.55;;
30862;SDS011;17573;55.922;37.540;2022-09-09T03:40:34;9.27;;;3.88;;
30862;SDS011;17573;55.922;37.540;2022-09-09T03:43:27;8.43;;;3.70;;
30862;SDS011;17573;55.922;37.540;2022-09-09T03:46:00;4.53;;;3.33;;
30862;SDS011;17573;55.922;37.540;2022-09-09T03:48:53;5.55;;;3.33;;
30862;SDS011;17573;55.922;37.540;2022-09-09T03:51:25;5.97;;;3.40;;
30862;SDS011;17573;55.922;37.540;2022-09-09T03:54:24;8.05;;;3.90;;
30862;SDS011;17573;55.922;37.540;2022-09-09T03:56:57;4.60;;;4.00;;
30862;SDS011;17573;55.922;37.540;2022-09-09T03:59:50;3.38;;;3.00;;
30862;SDS011;17573;55.922;37.540;2022-09-09T04:02:22;5.53;;;4.88;;
30862;SDS011;17573;55.922;37.540;2022-09-09T04:05:15;4.35;;;3.95;;
30862;SDS011;17573;55.922;37.540;2022-09-09T04:07:48;4.18;;;3.78;;
30862;SDS011;17573;55.922;37.540;2022-09-09T04:10:42;8.60;;;4.40;;
30862;SDS011;17573;55.922;37.540;2022-09-09T04:13:16;5.18;;;3.25;;
30862;SDS011;17573;55.922;37.540;2022-09-09T04:16:10;4.53;;;3.65;;
30862;SDS011;17573;55.922;37.540;2022-09-09T04:18:44;5.43;;;3.17;;
30862;SDS011;17573;55.922;37.540;2022-09-09T04:21:38;4.57;;;3.72;;
30862;SDS011;17573;55.922;37.540;2022-09-09T04:24:11;5.05;;;2.92;;
30862;SDS011;17573;55.922;37.540;2022-09-09T04:27:04;4.20;;;3.47;;
30862;SDS011;17573;55.922;37.540;2022-09-09T04:29:36;3.95;;;3.35;;
30862;SDS011;17573;55.922;37.540;2022-09-09T04:32:29;3.60;;;3.22;;
30862;SDS011;17573;55.922;37.540;2022-09-09T04:35:01;7.50;;;3.60;;
30862;SDS011;17573;55.922;37.540;2022-09-09T04:37:54;6.50;;;4.00;;
30862;SDS011;17573;55.922;37.540;2022-09-09T04:40:27;5.22;;;3.58;;
30862;SDS011;17573;55.922;37.540;2022-09-09T04:43:20;7.85;;;4.90;;
30862;SDS011;17573;55.922;37.540;2022-09-09T04:45:54;5.90;;;3.88;;
30862;SDS011;17573;55.922;37.540;2022-09-09T04:48:48;6.95;;;4.18;;
30862;SDS011;17573;55.922;37.540;2022-09-09T04:51:25;6.30;;;4.63;;
30862;SDS011;17573;55.922;37.540;2022-09-09T04:54:19;5.00;;;3.55;;
30862;SDS011;17573;55.922;37.540;2022-09-09T04:56:51;5.32;;;3.92;;
30862;SDS011;17573;55.922;37.540;2022-09-09T04:59:44;8.93;;;4.05;;
30862;SDS011;17573;55.922;37.540;2022-09-09T05:02:16;4.78;;;3.17;;
30862;SDS011;17573;55.922;37.540;2022-09-09T05:05:11;6.85;;;3.00;;
30862;SDS011;17573;55.922;37.540;2022-09-09T05:07:45;6.88;;;3.55;;
30862;SDS011;17573;55.922;37.540;2022-09-09T05:10:38;5.28;;;3.63;;
30862;SDS011;17573;55.922;37.540;2022-09-09T05:13:11;3.85;;;3.15;;
30862;SDS011;17573;55.922;37.540;2022-09-09T05:16:04;10.20;;;3.45;;
30862;SDS011;17573;55.922;37.540;2022-09-09T05:18:37;8.65;;;3.60;;
30862;SDS011;17573;55.922;37.540;2022-09-09T05:21:32;11.18;;;3.20;;
30862;SDS011;17573;55.922;37.540;2022-09-09T05:24:05;5.65;;;3.13;;
30862;SDS011;17573;55.922;37.540;2022-09-09T05:27:00;4.68;;;2.95;;
30862;SDS011;17573;55.922;37.540;2022-09-09T05:29:34;12.85;;;5.80;;
30862;SDS011;17573;55.922;37.540;2022-09-09T05:32:29;10.40;;;3.30;;
30862;SDS011;17573;55.922;37.540;2022-09-09T05:35:06;4.25;;;2.45;;
30862;SDS011;17573;55.922;37.540;2022-09-09T05:37:59;5.85;;;2.80;;
30862;SDS011;17573;55.922;37.540;2022-09-09T05:40:32;5.50;;;2.97;;
30862;SDS011;17573;55.922;37.540;2022-09-09T05:43:25;8.13;;;3.33;;
30862;SDS011;17573;55.922;37.540;2022-09-09T05:46:05;8.50;;;3.65;;
30862;SDS011;17573;55.922;37.540;2022-09-09T05:49:01;2.97;;;2.42;;
30862;SDS011;17573;55.922;37.540;2022-09-09T05:51:35;7.43;;;3.13;;
30862;SDS011;17573;55.922;37.540;2022-09-09T05:54:30;7.00;;;3.90;;
30862;SDS011;17573;55.922;37.540;2022-09-09T05:57:02;3.38;;;2.42;;
30862;SDS011;17573;55.922;37.540;2022-09-09T05:59:56;9.80;;;3.38;;
30862;SDS011;17573;55.922;37.540;2022-09-09T06:02:39;5.30;;;2.67;;
30862;SDS011;17573;55.922;37.540;2022-09-09T06:05:33;9.23;;;2.80;;
30862;SDS011;17573;55.922;37.540;2022-09-09T06:08:07;4.50;;;2.65;;
30862;SDS011;17573;55.922;37.540;2022-09-09T06:11:01;5.25;;;3.47;;
30862;SDS011;17573;55.922;37.540;2022-09-09T06:13:37;5.00;;;2.10;;
30862;SDS011;17573;55.922;37.540;2022-09-09T06:16:31;6.05;;;2.40;;
30862;SDS011;17573;55.922;37.540;2022-09-09T06:19:35;3.90;;;2.30;;
30862;SDS011;17573;55.922;37.540;2022-09-09T06:22:28;3.03;;;1.75;;
30862;SDS011;17573;55.922;37.540;2022-09-09T06:25:00;4.72;;;2.42;;
30862;SDS011;17573;55.922;37.540;2022-09-09T06:27:53;3.17;;;1.90;;
30862;SDS011;17573;55.922;37.540;2022-09-09T06:30:25;5.70;;;2.40;;
30862;SDS011;17573;55.922;37.540;2022-09-09T06:33:18;2.70;;;2.50;;
30862;SDS011;17573;55.922;37.540;2022-09-09T06:35:53;2.38;;;1.90;;
30862;SDS011;17573;55.922;37.540;2022-09-09T06:38:47;2.65;;;1.88;;
30862;SDS011;17573;55.922;37.540;2022-09-09T06:41:20;3.92;;;1.90;;
30862;SDS011;17573;55.922;37.540;2022-09-09T06:44:15;1.90;;;1.70;;
30862;SDS011;17573;55.922;37.540;2022-09-09T06:46:48;5.00;;;2.25;;
30862;SDS011;17573;55.922;37.540;2022-09-09T06:49:41;6.28;;;1.75;;
30862;SDS011;17573;55.922;37.540;2022-09-09T06:52:15;2.63;;;1.50;;
30862;SDS011;17573;55.922;37.540;2022-09-09T06:55:09;18.02;;;1.90;;
30862;SDS011;17573;55.922;37.540;2022-09-09T06:57:41;9.80;;;2.03;;
30862;SDS011;17573;55.922;37.540;2022-09-09T07:00:36;3.72;;;1.83;;
30862;SDS011;17573;55.922;37.540;2022-09-09T07:03:10;6.50;;;2.33;;
30862;SDS011;17573;55.922;37.540;2022-09-09T07:06:03;9.32;;;1.40;;
30862;SDS011;17573;55.922;37.540;2022-09-09T07:08:36;7.85;;;2.42;;
30862;SDS011;17573;55.922;37.540;2022-09-09T07:11:30;5.25;;;1.90;;
30862;SDS011;17573;55.922;37.540;2022-09-09T07:14:03;5.07;;;1.42;;
30862;SDS011;17573;55.922;37.540;2022-09-09T07:17:02;2.58;;;1.50;;
30862;SDS011;17573;55.922;37.540;2022-09-09T07:19:37;2.50;;;1.75;;
30862;SDS011;17573;55.922;37.540;2022-09-09T07:22:30;3.65;;;1.75;;
30862;SDS011;17573;55.922;37.540;2022-09-09T07:25:02;5.55;;;1.73;;
30862;SDS011;17573;55.922;37.540;2022-09-09T07:27:56;3.22;;;1.60;;
30862;SDS011;17573;55.922;37.540;2022-09-09T07:30:28;1.33;;;1.23;;
30862;SDS011;17573;55.922;37.540;2022-09-09T07:33:21;3.28;;;1.83;;
30862;SDS011;17573;55.922;37.540;2022-09-09T07:35:54;5.20;;;1.15;;
30862;SDS011;17573;55.922;37.540;2022-09-09T07:38:55;2.17;;;1.70;;
30862;SDS011;17573;55.922;37.540;2022-09-09T07:44:33;11.02;;;2.28;;
30862;SDS011;17573;55.922;37.540;2022-09-09T07:47:10;2.47;;;1.73;;
30862;SDS011;17573;55.922;37.540;2022-09-09T07:50:04;2.40;;;1.60;;
30862;SDS011;17573;55.922;37.540;2022-09-09T07:52:37;1.60;;;1.50;;
30862;SDS011;17573;55.922;37.540;2022-09-09T07:55:30;1.73;;;1.30;;
30862;SDS011;17573;55.922;37.540;2022-09-09T07:58:02;4.75;;;1.60;;
30862;SDS011;17573;55.922;37.540;2022-09-09T08:00:55;2.08;;;1.55;;
30862;SDS011;17573;55.922;37.540;2022-09-09T08:03:27;2.17;;;1.70;;
30862;SDS011;17573;55.922;37.540;2022-09-09T08:06:20;6.13;;;1.70;;
30862;SDS011;17573;55.922;37.540;2022-09-09T08:08:53;3.25;;;1.77;;
30862;SDS011;17573;55.922;37.540;2022-09-09T08:11:46;5.68;;;2.10;;
30862;SDS011;17573;55.922;37.540;2022-09-09T08:14:18;6.00;;;1.58;;
30862;SDS011;17573;55.922;37.540;2022-09-09T08:17:11;6.93;;;1.52;;
30862;SDS011;17573;55.922;37.540;2022-09-09T08:19:43;2.97;;;1.40;;
30862;SDS011;17573;55.922;37.540;2022-09-09T08:22:40;3.10;;;1.50;;
30862;SDS011;17573;55.922;37.540;2022-09-09T08:25:13;3.83;;;2.03;;
30862;SDS011;17573;55.922;37.540;2022-09-09T08:28:06;2.05;;;1.60;;
30862;SDS011;17573;55.922;37.540;2022-09-09T08:30:38;1.65;;;1.38;;
30862;SDS011;17573;55.922;37.540;2022-09-09T08:33:31;3.58;;;1.48;;
30862;SDS011;17573;55.922;37.540;2022-09-09T08:36:05;5.13;;;1.88;;
30862;SDS011;17573;55.922;37.540;2022-09-09T08:39:00;2.10;;;1.33;;
30862;SDS011;17573;55.922;37.540;2022-09-09T08:50:47;3.08;;;1.23;;
30862;SDS011;17573;55.922;37.540;2022-09-09T08:53:27;1.50;;;1.40;;
30862;SDS011;17573;55.922;37.540;2022-09-09T08:56:24;2.58;;;1.40;;
30862;SDS011;17573;55.922;37.540;2022-09-09T08:58:59;7.15;;;1.90;;
30862;SDS011;17573;55.922;37.540;2022-09-09T09:01:57;4.45;;;1.50;;
30862;SDS011;17573;55.922;37.540;2022-09-09T09:10:49;3.10;;;2.00;;
30862;SDS011;17573;55.922;37.540;2022-09-09T09:16:38;7.95;;;1.45;;
30862;SDS011;17573;55.922;37.540;2022-09-09T09:19:34;1.55;;;1.45;;
30862;SDS011;17573;55.922;37.540;2022-09-09T09:22:15;8.32;;;2.80;;
30862;SDS011;17573;55.922;37.540;2022-09-09T09:25:19;23.77;;;8.93;;
30862;SDS011;17573;55.922;37.540;2022-09-09T09:31:04;9.02;;;4.10;;
30862;SDS011;17573;55.922;37.540;2022-09-09T09:33:51;5.88;;;1.67;;
30862;SDS011;17573;55.922;37.540;2022-09-09T09:36:46;6.25;;;1.70;;
30862;SDS011;17573;55.922;37.540;2022-09-09T09:39:30;1.90;;;1.40;;
30862;SDS011;17573;55.922;37.540;2022-09-09T09:42:25;2.10;;;1.45;;
30862;SDS011;17573;55.922;37.540;2022-09-09T09:45:07;4.47;;;1.33;;
30862;SDS011;17573;55.922;37.540;2022-09-09T09:48:05;7.65;;;2.13;;
30862;SDS011;17573;55.922;37.540;2022-09-09T09:53:41;4.20;;;2.00;;
30862;SDS011;17573;55.922;37.540;2022-09-09T09:56:13;5.57;;;2.13;;
30862;SDS011;17573;55.922;37.540;2022-09-09T09:59:19;2.13;;;1.65;;
30862;SDS011;17573;55.922;37.540;2022-09-09T10:02:21;5.22;;;1.52;;
30862;SDS011;17573;55.922;37.540;2022-09-09T10:05:28;8.32;;;1.60;;
30862;SDS011;17573;55.922;37.540;2022-09-09T10:08:14;4.70;;;1.60;;
30862;SDS011;17573;55.922;37.540;2022-09-09T10:22:51;2.13;;;1.42;;
30862;SDS011;17573;55.922;37.540;2022-09-09T10:29:14;5.57;;;1.60;;
30862;SDS011;17573;55.922;37.540;2022-09-09T10:35:12;5.90;;;1.75;;
30862;SDS011;17573;55.922;37.540;2022-09-09T10:38:20;1.23;;;1.13;;
30862;SDS011;17573;55.922;37.540;2022-09-09T10:46:42;2.15;;;1.67;;
30862;SDS011;17573;55.922;37.540;2022-09-09T10:53:08;3.42;;;1.90;;
30862;SDS011;17573;55.922;37.540;2022-09-09T10:56:08;2.20;;;1.88;;
30862;SDS011;17573;55.922;37.540;2022-09-09T10:59:02;3.70;;;2.20;;
30862;SDS011;17573;55.922;37.540;2022-09-09T11:04:53;2.13;;;1.92;;
30862;SDS011;17573;55.922;37.540;2022-09-09T11:07:52;7.70;;;2.20;;
30862;SDS011;17573;55.922;37.540;2022-09-09T11:10:52;4.07;;;2.63;;
30862;SDS011;17573;55.922;37.540;2022-09-09T11:19:33;6.30;;;1.60;;
30862;SDS011;17573;55.922;37.540;2022-09-09T11:22:26;2.78;;;1.67;;
30862;SDS011;17573;55.922;37.540;2022-09-09T11:34:17;2.83;;;1.52;;
30862;SDS011;17573;55.922;37.540;2022-09-09T11:40:46;4.35;;;2.08;;
30862;SDS011;17573;55.922;37.540;2022-09-09T11:43:24;5.53;;;2.40;;
30862;SDS011;17573;55.922;37.540;2022-09-09T11:46:01;2.08;;;1.83;;
30862;SDS011;17573;55.922;37.540;2022-09-09T11:48:59;2.47;;;1.70;;
30862;SDS011;17573;55.922;37.540;2022-09-09T11:51:33;3.13;;;1.77;;
30862;SDS011;17573;55.922;37.540;2022-09-09T11:54:30;2.50;;;1.70;;
30862;SDS011;17573;55.922;37.540;2022-09-09T11:57:04;4.47;;;1.65;;
30862;SDS011;17573;55.922;37.540;2022-09-09T11:59:57;2.55;;;1.70;;
30862;SDS011;17573;55.922;37.540;2022-09-09T12:02:37;3.13;;;1.35;;
30862;SDS011;17573;55.922;37.540;2022-09-09T12:05:42;3.53;;;1.42;;
30862;SDS011;17573;55.922;37.540;2022-09-09T12:08:16;4.10;;;1.80;;
30862;SDS011;17573;55.922;37.540;2022-09-09T12:11:24;2.38;;;1.40;;
30862;SDS011;17573;55.922;37.540;2022-09-09T12:13:58;5.68;;;1.40;;
30862;SDS011;17573;55.922;37.540;2022-09-09T12:16:52;8.38;;;1.40;;
30862;SDS011;17573;55.922;37.540;2022-09-09T12:19:24;4.43;;;1.42;;
30862;SDS011;17573;55.922;37.540;2022-09-09T12:22:24;4.63;;;1.38;;
30862;SDS011;17573;55.922;37.540;2022-09-09T12:28:44;2.65;;;1.80;;
30862;SDS011;17573;55.922;37.540;2022-09-09T12:40:19;6.85;;;2.30;;
30862;SDS011;17573;55.922;37.540;2022-09-09T12:42:55;6.32;;;1.63;;
30862;SDS011;17573;55.922;37.540;2022-09-09T12:45:48;2.83;;;1.88;;
30862;SDS011;17573;55.922;37.540;2022-09-09T12:48:22;2.63;;;1.88;;
30862;SDS011;17573;55.922;37.540;2022-09-09T12:51:25;5.68;;;1.85;;
30862;SDS011;17573;55.922;37.540;2022-09-09T12:54:00;3.00;;;1.40;;
30862;SDS011;17573;55.922;37.540;2022-09-09T12:56:53;1.60;;;1.50;;
30862;SDS011;17573;55.922;37.540;2022-09-09T12:59:26;3.05;;;1.60;;
30862;SDS011;17573;55.922;37.540;2022-09-09T13:02:27;4.00;;;1.60;;
30862;SDS011;17573;55.922;37.540;2022-09-09T13:05:06;2.70;;;1.80;;
30862;SDS011;17573;55.922;37.540;2022-09-09T13:08:07;2.60;;;2.03;;
30862;SDS011;17573;55.922;37.540;2022-09-09T13:10:46;1.35;;;1.25;;
30862;SDS011;17573;55.922;37.540;2022-09-09T13:13:50;1.50;;;1.33;;
30862;SDS011;17573;55.922;37.540;2022-09-09T13:16:28;4.47;;;1.52;;
30862;SDS011;17573;55.922;37.540;2022-09-09T13:19:22;3.38;;;1.70;;
30862;SDS011;17573;55.922;37.540;2022-09-09T13:21:57;2.08;;;1.30;;
30862;SDS011;17573;55.922;37.540;2022-09-09T13:27:50;1.98;;;1.48;;
30862;SDS011;17573;55.922;37.540;2022-09-09T13:30:58;4.35;;;2.90;;
30862;SDS011;17573;55.922;37.540;2022-09-09T13:33:34;7.55;;;4.60;;
30862;SDS011;17573;55.922;37.540;2022-09-09T13:36:29;4.13;;;2.80;;
30862;SDS011;17573;55.922;37.540;2022-09-09T13:39:03;1.88;;;1.48;;
30862;SDS011;17573;55.922;37.540;2022-09-09T13:41:56;3.40;;;2.00;;
30862;SDS011;17573;55.922;37.540;2022-09-09T13:44:29;1.80;;;1.55;;
30862;SDS011;17573;55.922;37.540;2022-09-09T13:47:33;5.55;;;1.85;;
30862;SDS011;17573;55.922;37.540;2022-09-09T13:50:23;2.58;;;1.90;;
30862;SDS011;17573;55.922;37.540;2022-09-09T13:53:18;2.25;;;1.70;;
30862;SDS011;17573;55.922;37.540;2022-09-09T13:55:50;2.42;;;1.70;;
30862;SDS011;17573;55.922;37.540;2022-09-09T13:58:43;8.48;;;2.35;;
30862;SDS011;17573;55.922;37.540;2022-09-09T14:01:15;4.10;;;2.45;;
30862;SDS011;17573;55.922;37.540;2022-09-09T14:04:08;4.30;;;2.35;;
30862;SDS011;17573;55.922;37.540;2022-09-09T14:06:41;6.70;;;3.30;;
30862;SDS011;17573;55.922;37.540;2022-09-09T14:09:34;4.72;;;2.60;;
30862;SDS011;17573;55.922;37.540;2022-09-09T14:12:10;5.85;;;3.10;;
30862;SDS011;17573;55.922;37.540;2022-09-09T14:15:04;3.15;;;2.22;;
30862;SDS011;17573;55.922;37.540;2022-09-09T14:17:37;5.05;;;2.10;;
30862;SDS011;17573;55.922;37.540;2022-09-09T14:20:31;3.65;;;2.13;;
30862;SDS011;17573;55.922;37.540;2022-09-09T14:23:03;2.38;;;2.10;;
30862;SDS011;17573;55.922;37.540;2022-09-09T14:25:56;6.65;;;4.10;;
30862;SDS011;17573;55.922;37.540;2022-09-09T14:28:28;5.53;;;3.08;;
30862;SDS011;17573;55.922;37.540;2022-09-09T14:31:21;2.90;;;2.35;;
30862;SDS011;17573;55.922;37.540;2022-09-09T14:33:56;6.55;;;2.78;;
30862;SDS011;17573;55.922;37.540;2022-09-09T14:36:49;7.35;;;2.70;;
30862;SDS011;17573;55.922;37.540;2022-09-09T14:39:22;6.20;;;3.03;;
30862;SDS011;17573;55.922;37.540;2022-09-09T14:42:15;8.57;;;3.50;;
30862;SDS011;17573;55.922;37.540;2022-09-09T14:44:47;9.77;;;6.15;;
30862;SDS011;17573;55.922;37.540;2022-09-09T14:47:40;8.15;;;5.40;;
30862;SDS011;17573;55.922;37.540;2022-09-09T14:50:12;5.53;;;3.92;;
30862;SDS011;17573;55.922;37.540;2022-09-09T14:53:05;4.13;;;3.40;;
30862;SDS011;17573;55.922;37.540;2022-09-09T14:55:37;6.85;;;4.03;;
30862;SDS011;17573;55.922;37.540;2022-09-09T14:58:31;6.70;;;3.22;;
30862;SDS011;17573;55.922;37.540;2022-09-09T15:01:10;7.20;;;3.60;;
30862;SDS011;17573;55.922;37.540;2022-09-09T15:04:06;5.55;;;3.13;;
30862;SDS011;17573;55.922;37.540;2022-09-09T15:06:38;8.73;;;4.07;;
30862;SDS011;17573;55.922;37.540;2022-09-09T15:09:33;5.03;;;3.30;;
30862;SDS011;17573;55.922;37.540;2022-09-09T15:12:05;5.40;;;3.42;;
30862;SDS011;17573;55.922;37.540;2022-09-09T15:14:58;7.15;;;3.72;;
30862;SDS011;17573;55.922;37.540;2022-09-09T15:17:30;6.57;;;3.75;;
30862;SDS011;17573;55.922;37.540;2022-09-09T15:20:24;10.82;;;3.88;;
30862;SDS011;17573;55.922;37.540;2022-09-09T15:22:56;8.40;;;3.78;;
30862;SDS011;17573;55.922;37.540;2022-09-09T15:25:52;9.57;;;3.45;;
30862;SDS011;17573;55.922;37.540;2022-09-09T15:28:25;5.05;;;3.35;;
30862;SDS011;17573;55.922;37.540;2022-09-09T15:31:22;4.30;;;3.05;;
30862;SDS011;17573;55.922;37.540;2022-09-09T15:33:56;5.30;;;3.35;;
30862;SDS011;17573;55.922;37.540;2022-09-09T15:36:50;5.38;;;4.10;;
30862;SDS011;17573;55.922;37.540;2022-09-09T15:39:23;8.38;;;3.88;;
30862;SDS011;17573;55.922;37.540;2022-09-09T15:42:16;15.10;;;4.65;;
30862;SDS011;17573;55.922;37.540;2022-09-09T15:44:48;17.80;;;5.15;;
30862;SDS011;17573;55.922;37.540;2022-09-09T15:47:41;8.80;;;3.95;;
30862;SDS011;17573;55.922;37.540;2022-09-09T15:50:13;7.05;;;3.95;;
30862;SDS011;17573;55.922;37.540;2022-09-09T15:53:06;7.32;;;4.60;;
30862;SDS011;17573;55.922;37.540;2022-09-09T15:55:38;8.45;;;4.00;;
30862;SDS011;17573;55.922;37.540;2022-09-09T15:58:31;12.40;;;4.20;;
30862;SDS011;17573;55.922;37.540;2022-09-09T16:01:07;9.57;;;4.80;;
30862;SDS011;17573;55.922;37.540;2022-09-09T16:04:02;8.27;;;5.13;;
30862;SDS011;17573;55.922;37.540;2022-09-09T16:06:35;10.15;;;4.53;;
30862;SDS011;17573;55.922;37.540;2022-09-09T16:09:30;12.75;;;6.38;;
30862;SDS011;17573;55.922;37.540;2022-09-09T16:12:04;13.07;;;5.20;;
30862;SDS011;17573;55.922;37.540;2022-09-09T16:14:58;19.48;;;4.93;;
30862;SDS011;17573;55.922;37.540;2022-09-09T16:17:31;10.63;;;4.25;;
30862;SDS011;17573;55.922;37.540;2022-09-09T16:20:24;10.73;;;4.75;;
30862;SDS011;17573;55.922;37.540;2022-09-09T16:22:57;17.17;;;4.90;;
30862;SDS011;17573;55.922;37.540;2022-09-09T16:25:57;9.43;;;4.37;;
30862;SDS011;17573;55.922;37.540;2022-09-09T16:28:50;10.27;;;4.60;;
30862;SDS011;17573;55.922;37.540;2022-09-09T16:31:22;11.15;;;4.70;;
30862;SDS011;17573;55.922;37.540;2022-09-09T16:34:17;18.15;;;4.65;;
30862;SDS011;17573;55.922;37.540;2022-09-09T16:36:50;5.72;;;3.92;;
30862;SDS011;17573;55.922;37.540;2022-09-09T16:39:43;8.90;;;4.85;;
30862;SDS011;17573;55.922;37.540;2022-09-09T16:42:15;13.48;;;4.60;;
30862;SDS011;17573;55.922;37.540;2022-09-09T16:45:08;6.97;;;4.75;;
30862;SDS011;17573;55.922;37.540;2022-09-09T16:47:40;16.33;;;4.78;;
30862;SDS011;17573;55.922;37.540;2022-09-09T16:50:34;9.25;;;4.25;;
30862;SDS011;17573;55.922;37.540;2022-09-09T16:53:06;10.35;;;5.10;;
30862;SDS011;17573;55.922;37.540;2022-09-09T16:56:05;8.75;;;5.10;;
30862;SDS011;17573;55.922;37.540;2022-09-09T16:58:38;12.70;;;5.43;;
30862;SDS011;17573;55.922;37.540;2022-09-09T17:01:33;12.65;;;5.50;;
30862;SDS011;17573;55.922;37.540;2022-09-09T17:04:13;13.20;;;5.18;;
30862;SDS011;17573;55.922;37.540;2022-09-09T17:07:11;19.73;;;4.82;;
30862;SDS011;17573;55.922;37.540;2022-09-09T17:09:43;14.80;;;6.90;;
30862;SDS011;17573;55.922;37.540;2022-09-09T17:12:36;15.05;;;5.88;;
30862;SDS011;17573;55.922;37.540;2022-09-09T17:15:08;14.65;;;5.97;;
30862;SDS011;17573;55.922;37.540;2022-09-09T17:18:02;13.77;;;5.60;;
30862;SDS011;17573;55.922;37.540;2022-09-09T17:20:35;15.00;;;5.72;;
30862;SDS011;17573;55.922;37.540;2022-09-09T17:23:29;22.65;;;6.20;;
30862;SDS011;17573;55.922;37.540;2022-09-09T17:26:01;19.45;;;6.22;;
30862;SDS011;17573;55.922;37.540;2022-09-09T17:28:55;7.32;;;5.88;;
30862;SDS011;17573;55.922;37.540;2022-09-09T17:31:29;14.05;;;6.07;;
30862;SDS011;17573;55.922;37.540;2022-09-09T17:34:23;16.80;;;6.15;;
30862;SDS011;17573;55.922;37.540;2022-09-09T17:36:56;10.30;;;6.20;;
30862;SDS011;17573;55.922;37.540;2022-09-09T17:39:51;18.05;;;6.53;;
30862;SDS011;17573;55.922;37.540;2022-09-09T17:42:23;24.83;;;7.03;;
30862;SDS011;17573;55.922;37.540;2022-09-09T17:45:16;20.58;;;7.15;;
30862;SDS011;17573;55.922;37.540;2022-09-09T17:47:48;11.93;;;6.20;;
30862;SDS011;17573;55.922;37.540;2022-09-09T17:50:41;20.55;;;6.60;;
30862;SDS011;17573;55.922;37.540;2022-09-09T17:53:13;14.52;;;6.28;;
30862;SDS011;17573;55.922;37.540;2022-09-09T17:56:06;18.42;;;7.22;;
30862;SDS011;17573;55.922;37.540;2022-09-09T17:58:40;18.90;;;6.93;;
30862;SDS011;17573;55.922;37.540;2022-09-09T18:01:34;23.45;;;7.07;;
30862;SDS011;17573;55.922;37.540;2022-09-09T18:04:08;24.85;;;16.10;;
30862;SDS011;17573;55.922;37.540;2022-09-09T18:07:02;19.58;;;9.05;;
30862;SDS011;17573;55.922;37.540;2022-09-09T18:09:34;14.93;;;7.25;;
30862;SDS011;17573;55.922;37.540;2022-09-09T18:12:27;12.60;;;6.88;;
30862;SDS011;17573;55.922;37.540;2022-09-09T18:15:00;24.80;;;7.38;;
30862;SDS011;17573;55.922;37.540;2022-09-09T18:17:53;24.65;;;7.32;;
30862;SDS011;17573;55.922;37.540;2022-09-09T18:20:25;13.38;;;7.25;;
30862;SDS011;17573;55.922;37.540;2022-09-09T18:23:18;14.88;;;7.30;;
30862;SDS011;17573;55.922;37.540;2022-09-09T18:25:50;15.07;;;7.93;;
30862;SDS011;17573;55.922;37.540;2022-09-09T18:28:47;16.65;;;8.23;;
30862;SDS011;17573;55.922;37.540;2022-09-09T18:31:20;14.80;;;7.57;;
30862;SDS011;17573;55.922;37.540;2022-09-09T18:34:16;23.70;;;7.70;;